Time;durP1;ratioP1;P1;durP2;ratioP2;P2;SDS_P1;SDS_P2;PMS_P1;PMS_P2;Temp;Humidity;BMP_temperature;BMP_pressure;BME280_temperature;BME280_humidity;BME280_pressure;Samples;Min_cycle;Max_cycle;Signal;HPM_P1;HPM_P2
2022/01/25 00:08:20;;;;;;;6.10;5.60;;;;;;;0.23;100.00;98606.53;5035384;28;20310;-56
2022/01/25 00:16:08;;;;;;;5.63;5.23;;;;;;;0.26;100.00;98595.94;4958305;28;20245;-62
2022/01/25 00:26:45;;;;;;;4.47;4.07;;;;;;;0.52;100.00;98586.66;4958418;28;20717;-60
2022/01/25 00:29:26;;;;;;;5.80;5.17;;;;;;;0.52;100.00;98588.44;4962843;28;20283;-60
2022/01/25 00:31:54;;;;;;;5.37;4.97;;;;;;;0.52;100.00;98591.06;4960349;28;20203;-58
2022/01/25 00:34:22;;;;;;;5.27;4.87;;;;;;;0.49;100.00;98591.22;4961129;28;20220;-59
2022/01/25 00:36:52;;;;;;;5.73;5.27;;;;;;;0.60;100.00;98588.03;4960131;28;20274;-60
2022/01/25 00:39:20;;;;;;;5.50;5.00;;;;;;;0.51;100.00;98587.59;4964700;28;20356;-59
2022/01/25 00:41:48;;;;;;;6.07;5.40;;;;;;;0.53;100.00;98577.09;4958968;28;20210;-61
2022/01/25 00:44:17;;;;;;;5.67;5.07;;;;;;;0.47;100.00;98580.03;4962756;28;20246;-59
2022/01/25 00:46:45;;;;;;;7.00;5.63;;;;;;;0.43;100.00;98585.44;4996382;28;20203;-60
2022/01/25 00:49:20;;;;;;;6.53;5.93;;;;;;;0.39;100.00;98580.47;5034640;28;20258;-57
2022/01/25 00:52:05;;;;;;;6.53;5.93;;;;;;;0.53;100.00;98577.91;5033605;28;20591;-61
2022/01/25 00:54:40;;;;;;;6.77;5.57;;;;;;;0.57;100.00;98579.44;5034626;28;20208;-59
2022/01/25 00:57:08;;;;;;;6.53;5.83;;;;;;;0.59;100.00;98573.31;5035274;28;20521;-59
2022/01/25 00:59:36;;;;;;;5.97;5.37;;;;;;;0.54;100.00;98571.78;5035309;28;20516;-56
2022/01/25 01:02:10;;;;;;;6.27;5.73;;;;;;;0.58;100.00;98575.06;5036440;28;20238;-60
2022/01/25 01:04:41;;;;;;;6.27;5.77;;;;;;;0.54;100.00;98563.94;5033681;28;20262;-57
2022/01/25 01:07:14;;;;;;;6.63;6.03;;;;;;;0.58;100.00;98569.84;5032837;28;20219;-56
2022/01/25 01:09:47;;;;;;;6.00;5.30;;;;;;;0.41;100.00;98569.03;5034258;28;20282;-60
2022/01/25 01:12:29;;;;;;;6.23;5.73;;;;;;;0.58;100.00;98569.84;5034748;28;20204;-55
2022/01/25 01:15:07;;;;;;;8.97;6.50;;;;;;;0.59;100.00;98568.91;5027673;28;20283;-59
2022/01/25 01:28:52;;;;;;;6.67;5.97;;;;;;;0.52;100.00;98557.97;5028379;28;20282;-60
2022/01/25 01:29:24;;;;;;;6.03;5.57;;;;;;;0.43;100.00;98555.91;5036403;28;20232;-61
2022/01/25 01:32:09;;;;;;;7.07;6.37;;;;;;;0.42;100.00;98549.84;5040386;28;20269;-57
2022/01/25 01:37:50;;;;;;;7.00;6.37;;;;;;;0.56;100.00;98541.22;5035674;28;20892;-59
2022/01/25 01:43:14;;;;;;;9.10;8.20;;;;;;;0.38;100.00;98547.50;5026838;28;20242;-60
2022/01/25 01:45:53;;;;;;;9.27;7.47;;;;;;;0.47;100.00;98551.38;5030017;28;20232;-59
2022/01/25 01:48:29;;;;;;;7.07;6.40;;;;;;;0.47;100.00;98544.38;5027077;28;20226;-57
2022/01/25 01:51:04;;;;;;;7.40;6.67;;;;;;;0.51;100.00;98550.25;5029876;28;20208;-56
2022/01/25 01:53:33;;;;;;;8.10;5.90;;;;;;;0.50;100.00;98548.56;5033882;28;20211;-57
2022/01/25 01:56:01;;;;;;;6.77;6.17;;;;;;;0.68;100.00;98549.31;5030832;28;20224;-61
2022/01/25 01:58:31;;;;;;;8.20;7.50;;;;;;;0.63;100.00;98546.13;5031361;28;20259;-60
2022/01/25 02:00:59;;;;;;;6.40;5.87;;;;;;;0.47;100.00;98541.75;5028282;28;20361;-61
2022/01/25 02:03:28;;;;;;;8.73;7.20;;;;;;;0.39;100.00;98534.38;5026438;28;20239;-61
2022/01/25 02:05:56;;;;;;;7.30;6.67;;;;;;;0.43;100.00;98541.09;5028997;28;20343;-61
2022/01/25 02:08:24;;;;;;;6.87;6.27;;;;;;;0.35;100.00;98542.44;5029536;28;20769;-61
2022/01/25 02:10:52;;;;;;;7.37;6.63;;;;;;;0.25;100.00;98544.72;5029940;28;20212;-59
2022/01/25 02:13:21;;;;;;;7.90;6.70;;;;;;;0.35;100.00;98542.44;5030522;28;20226;-59
2022/01/25 02:15:51;;;;;;;6.93;6.27;;;;;;;0.37;100.00;98541.41;5031278;28;20354;-59
2022/01/25 02:23:52;;;;;;;7.77;6.73;;;;;;;0.28;100.00;98519.34;5034462;28;20224;-57
2022/01/25 02:26:20;;;;;;;6.93;6.27;;;;;;;0.41;100.00;98514.28;5035170;28;20257;-58
2022/01/25 02:28:48;;;;;;;7.43;5.90;;;;;;;0.33;100.00;98513.03;5032124;28;20307;-59
2022/01/25 02:31:18;;;;;;;6.80;6.10;;;;;;;0.23;100.00;98517.91;5034020;28;20274;-57
2022/01/25 02:33:46;;;;;;;8.03;6.53;;;;;;;0.31;100.00;98514.88;5032343;28;20269;-59
2022/01/25 02:36:52;;;;;;;6.53;5.93;;;;;;;0.23;100.00;98534.41;5018383;28;20351;-58
2022/01/25 02:39:21;;;;;;;5.70;5.23;;;;;;;0.20;100.00;98520.69;5035347;28;20681;-61
2022/01/25 02:41:49;;;;;;;7.07;6.37;;;;;;;0.19;100.00;98527.69;5034623;28;20199;-60
2022/01/25 02:44:23;;;;;;;7.93;6.67;;;;;;;0.38;100.00;98521.41;5036465;28;20703;-60
2022/01/25 02:49:37;;;;;;;6.90;6.30;;;;;;;0.19;100.00;98517.25;5032315;28;20208;-58
2022/01/25 02:52:06;;;;;;;6.73;6.13;;;;;;;0.07;100.00;98512.69;5035071;28;20209;-62
2022/01/25 02:54:40;;;;;;;7.40;6.70;;;;;;;0.06;100.00;98508.41;5027842;28;20205;-59
2022/01/25 02:57:08;;;;;;;7.33;6.07;;;;;;;0.30;100.00;98505.38;5033186;28;20720;-58
2022/01/25 02:59:36;;;;;;;6.40;5.80;;;;;;;0.22;100.00;98500.56;5032925;28;20224;-60
2022/01/25 03:02:05;;;;;;;7.43;6.60;;;;;;;0.33;100.00;98499.97;5034838;28;20668;-59
2022/01/25 03:04:34;;;;;;;7.10;6.50;;;;;;;0.22;100.00;98493.63;5034524;28;20218;-60
2022/01/25 03:07:02;;;;;;;6.90;6.07;;;;;;;-0.09;100.00;98492.72;5033832;28;20708;-61
2022/01/25 03:09:30;;;;;;;6.27;5.67;;;;;;;-0.53;100.00;98495.97;5039152;28;20322;-59
2022/01/25 03:12:02;;;;;;;6.77;6.17;;;;;;;-0.64;100.00;98493.91;5029654;28;20207;-61
2022/01/25 03:14:32;;;;;;;7.57;6.87;;;;;;;-0.97;100.00;98495.56;5035368;28;20219;-58
2022/01/25 03:17:10;;;;;;;7.03;6.43;;;;;;;-1.18;100.00;98493.16;5039966;28;20203;-60
2022/01/25 03:19:48;;;;;;;7.27;6.30;;;;;;;-1.36;100.00;98500.13;5033892;28;20245;-61
2022/01/25 03:22:18;;;;;;;8.03;7.30;;;;;;;-1.58;100.00;98494.28;5031706;28;20381;-60
2022/01/25 03:24:46;;;;;;;8.20;7.10;;;;;;;-1.76;100.00;98496.88;5033312;28;20210;-60
2022/01/25 03:27:16;;;;;;;8.47;6.67;;;;;;;-1.64;100.00;98495.44;5036350;28;21279;-57
2022/01/25 03:29:44;;;;;;;8.37;6.33;;;;;;;-1.89;100.00;98494.03;5034311;28;20460;-58
2022/01/25 03:32:12;;;;;;;8.30;7.13;;;;;;;-2.05;100.00;98499.94;5030241;28;20458;-60
2022/01/25 03:34:40;;;;;;;8.20;7.40;;;;;;;-2.10;100.00;98491.50;5032142;28;20455;-62
2022/01/25 03:37:08;;;;;;;8.20;7.40;;;;;;;-2.09;100.00;98495.78;5036328;28;20206;-60
2022/01/25 03:39:36;;;;;;;6.53;5.93;;;;;;;-1.99;100.00;98495.38;5040328;28;20223;-62
2022/01/25 03:42:08;;;;;;;7.67;6.63;;;;;;;-2.04;100.00;98500.78;5032107;28;20596;-61
2022/01/25 03:44:39;;;;;;;8.50;7.13;;;;;;;-2.26;100.00;98495.75;5033417;28;20222;-59
2022/01/25 03:47:12;;;;;;;8.70;7.20;;;;;;;-2.31;100.00;98500.31;5034235;28;20459;-60
2022/01/25 03:49:50;;;;;;;7.77;6.97;;;;;;;-2.45;100.00;98488.81;5037151;28;20207;-59
2022/01/25 03:52:24;;;;;;;9.17;7.30;;;;;;;-2.63;100.00;98487.88;5029886;28;20211;-57
2022/01/25 03:54:52;;;;;;;7.87;6.97;;;;;;;-2.68;100.00;98490.69;5030657;28;20227;-60
2022/01/25 03:57:20;;;;;;;7.27;6.03;;;;;;;-2.67;100.00;98489.75;5033499;28;20232;-61
2022/01/25 03:59:50;;;;;;;6.33;5.77;;;;;;;-2.73;100.00;98489.19;5032002;28;21070;-60
2022/01/25 04:02:18;;;;;;;8.57;7.60;;;;;;;-2.82;100.00;98488.69;5029168;28;20210;-60
2022/01/25 04:04:51;;;;;;;8.80;7.20;;;;;;;-2.85;100.00;98486.22;5036486;28;20749;-58
2022/01/25 04:07:27;;;;;;;8.00;6.63;;;;;;;-3.00;100.00;98494.69;5029919;28;20481;-61
2022/01/25 04:09:55;;;;;;;7.47;6.77;;;;;;;-2.78;100.00;98498.03;5034402;28;21196;-58
2022/01/25 04:12:23;;;;;;;7.17;6.57;;;;;;;-2.91;100.00;98494.28;5034213;28;20200;-60
2022/01/25 04:14:53;;;;;;;8.13;7.37;;;;;;;-2.95;100.00;98495.34;5029862;28;20853;-60
2022/01/25 04:17:22;;;;;;;7.97;6.33;;;;;;;-3.13;100.00;98489.19;5036857;28;20490;-61
2022/01/25 04:20:11;;;;;;;7.27;6.53;;;;;;;-3.00;100.00;98492.94;5029081;28;21258;-60
2022/01/25 04:25:24;;;;;;;7.23;6.53;;;;;;;-3.10;100.00;98486.47;5030990;28;20990;-58
2022/01/25 04:27:52;;;;;;;7.03;6.37;;;;;;;-3.28;100.00;98490.69;5034899;28;20496;-60
2022/01/25 04:30:22;;;;;;;12.30;7.33;;;;;;;-3.33;100.00;98490.84;5033735;28;20450;-60
2022/01/25 04:32:57;;;;;;;9.90;6.87;;;;;;;-3.42;100.00;98486.91;5035060;28;20989;-61
2022/01/25 04:35:43;;;;;;;9.27;7.20;;;;;;;-3.43;100.00;98489.56;5031355;28;20528;-61
2022/01/25 04:49:31;;;;;;;10.07;7.90;;;;;;;-3.54;100.00;98488.28;4931644;28;21148;-57
2022/01/25 04:52:01;;;;;;;9.50;7.77;;;;;;;-3.59;100.00;98489.34;4935517;28;20499;-62
2022/01/25 04:54:45;;;;;;;8.77;7.87;;;;;;;-3.58;100.00;98488.44;4933295;28;20518;-61
2022/01/25 04:57:25;;;;;;;8.20;7.40;;;;;;;-3.67;100.00;98482.75;4929879;28;20466;-58
2022/01/25 05:00:00;;;;;;;8.30;7.03;;;;;;;-3.69;100.00;98481.97;4934797;28;20502;-61
2022/01/25 05:02:39;;;;;;;7.67;6.97;;;;;;;-3.73;100.00;98482.13;4932740;28;20606;-61
2022/01/25 05:05:14;;;;;;;7.47;6.07;;;;;;;-3.81;100.00;98479.84;4932172;28;20470;-60
2022/01/25 05:07:48;;;;;;;9.27;7.23;;;;;;;-3.86;100.00;98474.88;4932662;28;20491;-59
2022/01/25 05:10:17;;;;;;;8.17;7.37;;;;;;;-3.90;100.00;98468.13;4932039;28;20459;-59
2022/01/25 05:12:50;;;;;;;8.07;7.23;;;;;;;-3.93;100.00;98471.69;4935199;28;20454;-57
2022/01/25 05:16:00;;;;;;;9.37;7.40;;;;;;;-3.89;100.00;98469.81;4933655;28;20486;-61
2022/01/25 05:18:40;;;;;;;9.73;7.33;;;;;;;-3.94;100.00;98469.16;4929756;28;20557;-58
2022/01/25 05:23:54;;;;;;;9.73;8.00;;;;;;;-3.98;100.00;98467.56;5034979;28;21053;-58
2022/01/25 05:26:23;;;;;;;13.00;8.60;;;;;;;-3.96;100.00;98458.03;5033223;28;20489;-59
2022/01/25 05:28:55;;;;;;;10.77;7.83;;;;;;;-3.98;100.00;98457.22;5030489;28;20518;-58
2022/01/25 05:31:23;;;;;;;9.30;8.43;;;;;;;-3.97;100.00;98458.94;5029592;28;20469;-59
2022/01/25 05:33:53;;;;;;;11.37;8.27;;;;;;;-3.95;100.00;98462.31;5034980;28;20466;-61
2022/01/25 05:36:24;;;;;;;9.40;7.97;;;;;;;-4.01;100.00;98463.38;5031078;28;20486;-61
2022/01/25 05:38:55;;;;;;;8.30;7.50;;;;;;;-3.98;100.00;98459.81;5029563;28;20482;-61
2022/01/25 05:41:26;;;;;;;9.07;7.53;;;;;;;-3.83;100.00;98466.97;5029011;28;20480;-58
2022/01/25 05:46:47;;;;;;;9.73;8.47;;;;;;;-3.94;100.00;98472.56;5024807;28;20473;-61
2022/01/25 05:49:17;;;;;;;11.87;9.27;;;;;;;-3.97;100.00;98464.94;5034410;28;20480;-60
2022/01/25 05:51:45;;;;;;;9.87;8.73;;;;;;;-3.90;100.00;98472.44;5035711;28;21848;-57
2022/01/25 05:54:13;;;;;;;9.63;8.00;;;;;;;-3.93;100.00;98474.25;5033212;28;20837;-55
2022/01/25 05:56:41;;;;;;;9.43;7.73;;;;;;;-3.92;100.00;98469.94;5034423;28;20492;-61
2022/01/25 05:59:10;;;;;;;11.13;7.80;;;;;;;-3.80;100.00;98464.25;5040188;28;20580;-61
2022/01/25 06:01:38;;;;;;;12.17;8.17;;;;;;;-3.85;100.00;98471.38;5035292;28;20454;-60
2022/01/25 06:04:07;;;;;;;8.23;7.17;;;;;;;-3.70;100.00;98467.31;5037918;28;20528;-58
2022/01/25 06:06:36;;;;;;;10.43;8.20;;;;;;;-3.61;100.00;98468.69;5036422;28;20456;-59
2022/01/25 06:09:04;;;;;;;9.80;7.73;;;;;;;-3.45;100.00;98471.47;5034876;28;20478;-58
2022/01/25 06:11:33;;;;;;;10.90;8.93;;;;;;;-3.40;100.00;98481.66;5039045;28;20854;-60
2022/01/25 06:14:02;;;;;;;9.87;8.07;;;;;;;-3.27;100.00;98484.59;5037633;28;21035;-60
2022/01/25 06:16:30;;;;;;;10.13;9.13;;;;;;;-3.25;100.00;98487.97;5031958;28;20462;-61
2022/01/25 06:18:58;;;;;;;10.47;9.20;;;;;;;-3.20;100.00;98479.09;5033536;28;20484;-61
2022/01/25 06:21:27;;;;;;;10.47;9.40;;;;;;;-3.14;100.00;98479.72;5030997;28;20459;-61
2022/01/25 06:23:56;;;;;;;11.73;9.43;;;;;;;-3.09;100.00;98482.97;5032859;28;21162;-58
2022/01/25 06:26:24;;;;;;;12.47;9.07;;;;;;;-3.01;100.00;98483.47;5036341;28;20458;-59
2022/01/25 06:28:52;;;;;;;15.27;9.47;;;;;;;-2.94;100.00;98484.06;5033524;28;20581;-61
2022/01/25 06:31:21;;;;;;;12.57;10.70;;;;;;;-2.83;100.00;98487.00;5036912;28;20458;-60
2022/01/25 06:33:49;;;;;;;14.87;10.47;;;;;;;-2.75;100.00;98486.69;5031348;28;20835;-59
2022/01/25 06:36:18;;;;;;;14.50;10.57;;;;;;;-2.73;100.00;98491.78;5030234;28;20726;-61
2022/01/25 06:38:46;;;;;;;15.63;10.60;;;;;;;-2.65;100.00;98489.72;5032267;28;21094;-59
2022/01/25 06:41:17;;;;;;;15.70;9.97;;;;;;;-2.66;100.00;98490.59;5031463;28;21044;-60
2022/01/25 06:43:46;;;;;;;15.10;11.53;;;;;;;-2.67;100.00;98481.13;5034612;28;21001;-61
2022/01/25 06:46:14;;;;;;;12.20;10.90;;;;;;;-2.54;100.00;98473.63;5034727;28;20460;-60
2022/01/25 06:48:42;;;;;;;13.20;11.33;;;;;;;-2.50;100.00;98476.03;5033363;28;20930;-57
2022/01/25 06:51:10;;;;;;;14.70;12.83;;;;;;;-2.62;100.00;98468.81;5037708;28;20205;-60
2022/01/25 06:53:38;;;;;;;14.00;11.33;;;;;;;-2.53;100.00;98481.38;5034982;28;20469;-60
2022/01/25 06:56:06;;;;;;;13.00;10.73;;;;;;;-2.53;100.00;98488.28;5036821;28;20204;-56
2022/01/25 06:58:36;;;;;;;14.87;10.20;;;;;;;-2.37;100.00;98496.22;5039065;28;20513;-60
2022/01/25 07:01:04;;;;;;;14.10;10.93;;;;;;;-2.50;100.00;98489.00;5038520;28;20516;-61
2022/01/25 07:03:32;;;;;;;12.87;10.17;;;;;;;-2.42;100.00;98496.47;5031722;28;20855;-59
2022/01/25 07:06:00;;;;;;;13.23;11.83;;;;;;;-2.26;100.00;98494.00;5034604;28;20458;-60
2022/01/25 07:08:28;;;;;;;10.43;9.07;;;;;;;-2.30;100.00;98491.59;5037084;28;20802;-60
2022/01/25 07:10:56;;;;;;;12.47;9.50;;;;;;;-2.28;100.00;98500.16;5039501;28;20875;-58
2022/01/25 07:13:25;;;;;;;15.20;10.80;;;;;;;-2.23;100.00;98493.84;5031556;28;20462;-59
2022/01/25 07:15:54;;;;;;;15.47;10.83;;;;;;;-2.20;100.00;98503.25;5035136;28;20906;-60
2022/01/25 07:18:22;;;;;;;11.80;9.90;;;;;;;-2.03;100.00;98512.84;5033415;28;20485;-60
2022/01/25 07:20:50;;;;;;;14.23;10.23;;;;;;;-2.02;100.00;98509.34;5032379;28;20486;-57
2022/01/25 07:23:18;;;;;;;15.93;9.83;;;;;;;-2.04;100.00;98500.78;5028623;28;20358;-59
2022/01/25 07:25:46;;;;;;;11.67;9.50;;;;;;;-2.06;100.00;98497.41;5030234;28;20691;-60
2022/01/25 07:28:14;;;;;;;13.03;10.73;;;;;;;-1.91;100.00;98491.47;5032001;28;20482;-60
2022/01/25 07:30:42;;;;;;;12.30;10.10;;;;;;;-1.70;100.00;98491.38;5030555;28;20246;-61
2022/01/25 07:33:29;;;;;;;11.40;9.47;;;;;;;-1.80;100.00;98500.53;5031214;28;20627;-59
2022/01/25 07:35:57;;;;;;;14.00;9.97;;;;;;;-1.67;100.00;98493.00;5035140;28;20486;-58
2022/01/25 07:38:32;;;;;;;14.47;10.00;;;;;;;-1.59;100.00;98501.25;5034091;28;20633;-62
2022/01/25 07:41:09;;;;;;;12.10;9.53;;;;;;;-1.46;100.00;98498.91;5032994;28;20588;-61
2022/01/25 07:43:43;;;;;;;12.00;9.43;;;;;;;-1.37;100.00;98492.38;5031333;28;20206;-60
2022/01/25 07:46:14;;;;;;;10.93;9.73;;;;;;;-1.33;100.00;98488.72;5033864;28;20473;-61
2022/01/25 07:48:45;;;;;;;10.93;9.67;;;;;;;-1.24;100.00;98495.22;5031200;28;20314;-60
2022/01/25 07:51:13;;;;;;;13.53;11.33;;;;;;;-1.26;100.00;98495.31;5035024;28;20298;-58
2022/01/25 07:53:41;;;;;;;11.27;9.30;;;;;;;-1.15;100.00;98499.13;5037017;28;20625;-60
2022/01/25 07:56:09;;;;;;;16.23;10.90;;;;;;;-1.30;100.00;98499.00;5032664;28;20221;-61
2022/01/25 07:58:37;;;;;;;13.97;9.20;;;;;;;-1.17;100.00;98492.25;5036227;28;20223;-57
2022/01/25 08:01:06;;;;;;;10.70;9.60;;;;;;;-1.00;100.00;98497.50;5033403;28;20219;-59
2022/01/25 08:03:34;;;;;;;12.90;10.83;;;;;;;-0.95;100.00;98500.72;5032465;28;20568;-61
2022/01/25 08:06:09;;;;;;;13.33;10.60;;;;;;;-0.95;100.00;98501.53;5034516;28;20211;-60
2022/01/25 08:08:44;;;;;;;13.80;9.97;;;;;;;-1.01;100.00;98499.25;5034538;28;20782;-58
2022/01/25 08:11:22;;;;;;;12.77;9.43;;;;;;;-1.02;100.00;98500.16;5031320;28;20215;-61
2022/01/25 08:14:11;;;;;;;14.07;9.93;;;;;;;-1.07;100.00;98502.16;5033776;28;20273;-60
2022/01/25 08:16:46;;;;;;;12.10;10.83;;;;;;;-0.93;100.00;98498.88;5031969;28;20274;-57
2022/01/25 08:19:18;;;;;;;9.73;8.73;;;;;;;-1.07;100.00;98494.38;5031334;28;20319;-62
2022/01/25 08:21:56;;;;;;;9.40;8.50;;;;;;;-1.17;100.00;98493.97;5031310;28;20323;-63
2022/01/25 08:24:29;;;;;;;11.60;9.40;;;;;;;-1.04;100.00;98500.25;5031201;28;20208;-61
2022/01/25 08:27:05;;;;;;;10.87;8.93;;;;;;;-1.04;100.00;98489.84;5034769;28;20215;-61
2022/01/25 08:29:34;;;;;;;13.90;10.27;;;;;;;-1.01;100.00;98488.84;5030157;28;20850;-62
2022/01/25 08:32:04;;;;;;;14.60;10.47;;;;;;;-0.95;100.00;98482.50;5035134;28;20211;-55
2022/01/25 08:34:51;;;;;;;10.80;9.60;;;;;;;-0.88;100.00;98489.06;4971100;28;20210;-58
2022/01/25 08:37:37;;;;;;;10.93;9.80;;;;;;;-0.78;100.00;98492.84;4972928;28;20236;-59
2022/01/25 08:40:19;;;;;;;12.10;9.87;;;;;;;-0.72;100.00;98494.31;4878476;29;20603;-59
2022/01/25 08:42:57;;;;;;;11.50;10.23;;;;;;;-0.60;100.00;98498.03;4875530;29;20415;-58
2022/01/25 08:45:42;;;;;;;14.53;11.43;;;;;;;-0.52;100.00;98484.63;4878702;29;20833;-58
2022/01/25 08:48:28;;;;;;;24.30;17.00;;;;;;;-0.69;100.00;98496.75;4879165;29;20381;-60
2022/01/25 08:51:13;;;;;;;17.93;14.23;;;;;;;-0.72;100.00;98504.72;4880005;29;20605;-59
2022/01/25 08:54:00;;;;;;;11.70;10.50;;;;;;;-0.84;100.00;98506.19;4883037;29;20958;-59
2022/01/25 08:56:46;;;;;;;11.57;10.17;;;;;;;-0.81;100.00;98510.41;4880394;29;20597;-57
2022/01/25 08:59:31;;;;;;;14.23;10.40;;;;;;;-0.55;100.00;98516.03;4879687;29;20216;-58
2022/01/25 09:02:16;;;;;;;11.10;9.63;;;;;;;-0.70;100.00;98515.06;4881577;29;20700;-56
2022/01/25 09:05:02;;;;;;;10.93;9.67;;;;;;;-0.57;100.00;98515.25;4880639;29;20378;-58
2022/01/25 09:07:30;;;;;;;13.93;10.23;;;;;;;-0.33;100.00;98511.34;4879086;29;20225;-60
2022/01/25 09:09:59;;;;;;;13.87;10.50;;;;;;;-0.60;100.00;98514.47;4879467;29;20685;-59
2022/01/25 09:12:27;;;;;;;14.00;11.93;;;;;;;-0.47;100.00;98517.28;4915692;28;20289;-60
2022/01/25 09:14:55;;;;;;;12.87;11.33;;;;;;;-0.25;100.00;98513.53;4934141;28;20692;-60
2022/01/25 09:17:23;;;;;;;19.00;11.30;;;;;;;-0.17;100.00;98503.53;4969534;28;20302;-58
2022/01/25 09:19:51;;;;;;;12.83;10.13;;;;;;;-0.07;100.00;98506.50;5032077;28;20233;-60
2022/01/25 09:22:25;;;;;;;12.47;10.80;;;;;;;-0.03;100.00;98499.31;5035340;28;20216;-57
2022/01/25 09:25:09;;;;;;;12.73;11.43;;;;;;;0.06;100.00;98493.63;5028200;28;20203;-56
2022/01/25 09:27:37;;;;;;;11.87;10.67;;;;;;;-0.03;100.00;98499.31;5034727;28;20223;-60
2022/01/25 09:30:06;;;;;;;14.13;10.40;;;;;;;-0.10;100.00;98506.66;5029364;28;20204;-61
2022/01/25 09:32:34;;;;;;;14.50;11.27;;;;;;;-0.01;100.00;98505.28;5028312;28;20676;-60
2022/01/25 09:35:02;;;;;;;13.70;10.60;;;;;;;0.12;100.00;98506.31;5032414;28;20472;-59
2022/01/25 09:37:30;;;;;;;11.77;9.73;;;;;;;-0.15;100.00;98504.28;5030679;28;20235;-61
2022/01/25 09:39:58;;;;;;;11.97;10.47;;;;;;;0.17;100.00;98500.81;5032532;28;20204;-58
2022/01/25 09:42:29;;;;;;;12.20;10.87;;;;;;;0.33;100.00;98510.41;5034451;28;20223;-59
2022/01/25 09:44:59;;;;;;;14.07;11.00;;;;;;;0.37;100.00;98507.53;5030006;28;20207;-58
2022/01/25 09:47:27;;;;;;;11.77;10.20;;;;;;;0.35;100.00;98508.56;5030819;28;20224;-58
2022/01/25 09:49:55;;;;;;;18.37;14.77;;;;;;;0.25;100.00;98516.03;5026359;28;20246;-55
2022/01/25 09:52:24;;;;;;;13.47;11.07;;;;;;;0.36;100.00;98513.66;5030735;28;20208;-59
2022/01/25 09:54:56;;;;;;;12.50;9.17;;;;;;;0.41;100.00;98518.63;5034338;28;20257;-57
2022/01/25 09:57:24;;;;;;;13.17;10.77;;;;;;;0.32;100.00;98513.94;5031972;28;20598;-61
2022/01/25 09:59:53;;;;;;;15.53;10.20;;;;;;;0.42;100.00;98522.91;5028365;28;20290;-59
2022/01/25 10:02:40;;;;;;;12.23;10.93;;;;;;;0.36;100.00;98524.09;5030074;28;20224;-59
2022/01/25 10:05:16;;;;;;;12.00;10.67;;;;;;;0.57;100.00;98521.22;5029468;28;20210;-58
2022/01/25 10:07:55;;;;;;;15.43;10.50;;;;;;;0.51;100.00;98517.19;5030135;28;20227;-60
2022/01/25 10:10:24;;;;;;;13.30;11.00;;;;;;;0.52;100.00;98518.03;5033441;28;20208;-57
2022/01/25 10:12:52;;;;;;;12.67;10.50;;;;;;;0.33;100.00;98503.41;5030694;28;20218;-61
2022/01/25 10:15:26;;;;;;;12.80;10.90;;;;;;;0.23;100.00;98512.69;5033060;28;20463;-58
2022/01/25 10:18:12;;;;;;;10.47;9.40;;;;;;;0.47;100.00;98514.84;5028785;28;20231;-57
2022/01/25 10:20:42;;;;;;;12.23;10.90;;;;;;;0.43;100.00;98509.81;5031973;28;20204;-61
2022/01/25 10:23:12;;;;;;;11.70;9.97;;;;;;;0.26;100.00;98512.50;5031280;28;20638;-60
2022/01/25 10:25:41;;;;;;;11.70;9.60;;;;;;;0.09;100.00;98521.28;5032915;28;20690;-59
2022/01/25 10:28:12;;;;;;;10.57;9.33;;;;;;;0.14;100.00;98514.03;5029076;28;20703;-59
2022/01/25 10:30:48;;;;;;;11.20;9.63;;;;;;;0.35;100.00;98512.00;5030862;28;20676;-55
2022/01/25 10:33:21;;;;;;;10.70;9.60;;;;;;;0.45;100.00;98519.31;5030925;28;20200;-58
2022/01/25 10:35:49;;;;;;;9.50;8.53;;;;;;;0.31;100.00;98512.25;5032515;28;20625;-61
2022/01/25 10:38:19;;;;;;;11.07;9.30;;;;;;;0.13;100.00;98504.53;5034698;28;20665;-58
2022/01/25 10:40:55;;;;;;;17.77;11.67;;;;;;;0.56;100.00;98509.09;5032730;28;20285;-58
2022/01/25 10:43:23;;;;;;;12.27;10.47;;;;;;;0.89;100.00;98510.69;5031375;28;20626;-59
2022/01/25 10:46:07;;;;;;;10.50;9.43;;;;;;;0.85;100.00;98520.44;5035624;28;20227;-59
2022/01/25 10:48:35;;;;;;;11.47;8.87;;;;;;;0.76;100.00;98514.91;5035257;28;20224;-60
2022/01/25 10:51:06;;;;;;;9.80;8.83;;;;;;;0.82;100.00;98518.03;5035770;28;20227;-58
2022/01/25 10:53:34;;;;;;;12.47;9.60;;;;;;;0.81;100.00;98507.69;5036144;28;20207;-60
2022/01/25 10:56:03;;;;;;;12.87;9.23;;;;;;;0.83;100.00;98509.25;5032139;28;20235;-60
2022/01/25 10:58:31;;;;;;;11.97;10.30;;;;;;;0.92;100.00;98509.66;5036244;28;20239;-61
2022/01/25 11:00:59;;;;;;;12.13;9.10;;;;;;;1.10;100.00;98505.09;5036926;28;20220;-60
2022/01/25 11:03:31;;;;;;;11.40;9.23;;;;;;;1.09;100.00;98511.25;5035654;28;20278;-58
2022/01/25 11:06:10;;;;;;;12.43;9.90;;;;;;;0.93;100.00;98498.28;5034494;28;20619;-58
2022/01/25 11:08:39;;;;;;;13.40;10.40;;;;;;;0.91;100.00;98498.38;5033084;28;20476;-59
2022/01/25 11:11:10;;;;;;;12.90;10.17;;;;;;;0.87;100.00;98489.06;5032952;28;20223;-59
2022/01/25 11:13:42;;;;;;;22.03;17.60;;;;;;;0.85;100.00;98491.75;5035873;28;20196;-58
2022/01/25 11:16:11;;;;;;;15.13;11.07;;;;;;;0.80;100.00;98485.13;5034927;28;20207;-59
2022/01/25 11:18:41;;;;;;;11.47;8.87;;;;;;;0.98;100.00;98488.44;5038516;28;20247;-60
2022/01/25 11:21:11;;;;;;;30.10;12.80;;;;;;;0.75;100.00;98490.63;5036831;28;20204;-57
2022/01/25 11:23:42;;;;;;;12.47;10.37;;;;;;;1.03;100.00;98477.69;5038538;28;20318;-61
2022/01/25 11:26:13;;;;;;;13.53;10.23;;;;;;;1.15;100.00;98469.97;5033584;28;20215;-58
2022/01/25 11:28:42;;;;;;;12.47;9.97;;;;;;;1.15;100.00;98471.75;5035053;28;20322;-61
2022/01/25 11:31:13;;;;;;;13.17;10.23;;;;;;;1.55;100.00;98465.84;5033296;28;20200;-57
2022/01/25 11:33:47;;;;;;;11.17;9.87;;;;;;;1.63;100.00;98476.66;5034975;28;20739;-59
2022/01/25 11:36:15;;;;;;;12.33;10.40;;;;;;;1.64;100.00;98469.69;5034034;28;20322;-58
2022/01/25 11:38:46;;;;;;;14.53;9.70;;;;;;;1.82;100.00;98457.22;5034796;28;20224;-58
2022/01/25 11:41:16;;;;;;;14.00;10.50;;;;;;;1.66;100.00;98452.13;5033097;28;20204;-57
2022/01/25 11:43:45;;;;;;;14.60;12.00;;;;;;;1.62;100.00;98448.84;5032197;28;20220;-57
2022/01/25 11:46:14;;;;;;;13.77;10.77;;;;;;;1.74;100.00;98455.09;5030061;28;20689;-58
2022/01/25 11:48:45;;;;;;;16.47;11.53;;;;;;;1.63;100.00;98447.09;5031733;28;20310;-58
2022/01/25 11:51:18;;;;;;;13.70;10.97;;;;;;;1.56;100.00;98441.41;5032599;28;20204;-59
2022/01/25 11:53:50;;;;;;;20.83;11.83;;;;;;;1.41;100.00;98446.66;5031576;28;20401;-57
2022/01/25 11:56:18;;;;;;;17.23;11.03;;;;;;;1.46;100.00;98445.53;5033038;28;20236;-59
2022/01/25 11:58:55;;;;;;;14.73;11.67;;;;;;;1.54;100.00;98446.75;5032057;28;20223;-57
2022/01/25 12:01:24;;;;;;;14.73;11.93;;;;;;;1.45;100.00;98436.84;5036780;28;20212;-60
2022/01/25 12:03:58;;;;;;;15.73;11.87;;;;;;;1.22;100.00;98433.03;5032621;28;20236;-57
2022/01/25 12:06:31;;;;;;;17.97;10.63;;;;;;;1.02;100.00;98442.94;5032521;28;20215;-58
2022/01/25 12:09:16;;;;;;;15.00;11.27;;;;;;;1.20;100.00;98442.75;5034716;28;20223;-61
2022/01/25 12:11:47;;;;;;;17.63;12.63;;;;;;;1.25;100.00;98438.06;5031767;28;20212;-56
2022/01/25 12:14:24;;;;;;;19.33;12.63;;;;;;;1.18;100.00;98444.63;5030344;28;20208;-58
2022/01/25 12:16:56;;;;;;;19.77;13.53;;;;;;;1.30;100.00;98446.47;5032306;28;20294;-56
2022/01/25 12:19:36;;;;;;;21.40;13.00;;;;;;;1.35;100.00;98435.75;5035384;28;20281;-59
2022/01/25 12:22:11;;;;;;;18.67;12.77;;;;;;;1.50;100.00;98447.84;5017267;28;20218;-56
2022/01/25 12:24:52;;;;;;;20.67;13.47;;;;;;;1.17;100.00;98429.88;5029494;28;20615;-58
2022/01/25 12:27:24;;;;;;;18.03;12.17;;;;;;;1.18;100.00;98436.78;5034462;28;20739;-59
2022/01/25 12:30:01;;;;;;;20.73;12.53;;;;;;;0.79;100.00;98431.28;5029615;28;20211;-58
2022/01/25 12:32:32;;;;;;;16.60;12.37;;;;;;;0.77;100.00;98433.13;5028916;28;20692;-61
2022/01/25 12:35:16;;;;;;;18.80;12.57;;;;;;;0.74;100.00;98433.28;5029968;28;20314;-59
2022/01/25 12:38:16;;;;;;;15.20;11.80;;;;;;;0.81;100.00;98432.84;5029690;28;20315;-59
2022/01/25 12:40:55;;;;;;;15.73;11.27;;;;;;;0.93;100.00;98431.28;4948237;28;20221;-56
2022/01/25 12:43:26;;;;;;;14.27;10.93;;;;;;;0.81;100.00;98439.84;4945703;28;20298;-57
2022/01/25 12:45:58;;;;;;;15.33;11.23;;;;;;;0.81;100.00;98443.28;4955472;28;20690;-57
2022/01/25 12:48:29;;;;;;;13.50;11.37;;;;;;;0.80;100.00;98433.78;4954802;28;20710;-58